createdAt,value
2023-05-11T00:00:01.496Z,238.71
2023-05-11T00:01:01.505Z,240.86
2023-05-11T00:02:01.582Z,237.79
2023-05-11T00:03:01.692Z,241.85
2023-05-11T00:04:01.657Z,238.40
2023-05-11T00:05:01.615Z,242.86
2023-05-11T00:06:01.559Z,237.75
2023-05-11T00:07:01.603Z,237.59
2023-05-11T00:08:01.637Z,237.76
2023-05-11T00:09:01.647Z,241.53
2023-05-11T00:10:01.652Z,240.28
2023-05-11T00:11:01.691Z,240.09
2023-05-11T00:12:01.661Z,239.56
2023-05-11T00:13:01.719Z,237.66
2023-05-11T00:14:01.729Z,238.77
2023-05-11T00:15:01.750Z,237.30
2023-05-11T00:16:01.753Z,236.77
2023-05-11T00:17:01.761Z,239.00
2023-05-11T00:18:01.897Z,235.77
2023-05-11T00:19:01.823Z,238.28
2023-05-11T00:20:01.804Z,241.74
2023-05-11T00:21:01.784Z,239.21
2023-05-11T00:22:01.850Z,236.57
2023-05-11T00:23:01.789Z,240.35
2023-05-11T00:24:01.824Z,240.08
2023-05-11T00:25:01.824Z,237.33
2023-05-11T00:26:01.836Z,236.49
2023-05-11T00:27:01.833Z,236.26
2023-05-11T00:28:01.886Z,239.51
2023-05-11T00:29:01.850Z,236.96
2023-05-11T00:30:01.944Z,239.19
2023-05-11T00:31:01.962Z,236.01
2023-05-11T00:32:01.904Z,236.81
2023-05-11T00:33:01.984Z,238.64
2023-05-11T00:34:01.968Z,239.47
2023-05-11T00:35:01.972Z,238.71
2023-05-11T00:36:01.972Z,234.10
2023-05-11T00:37:01.977Z,237.69
2023-05-11T00:38:02.042Z,238.17
2023-05-11T00:39:02.056Z,235.24
2023-05-11T00:40:02.051Z,235.03
2023-05-11T00:41:02.027Z,238.67
2023-05-11T00:42:02.110Z,234.27
2023-05-11T00:43:02.078Z,234.05
2023-05-11T00:44:02.109Z,238.64
2023-05-11T00:45:02.157Z,238.13
2023-05-11T00:46:02.135Z,235.23
2023-05-11T00:47:02.228Z,235.27
2023-05-11T00:48:02.200Z,236.87
2023-05-11T00:49:02.192Z,234.09
2023-05-11T00:50:02.268Z,237.82
2023-05-11T00:51:02.222Z,236.87
2023-05-11T00:52:02.205Z,237.74
2023-05-11T00:53:02.302Z,234.59
2023-05-11T00:54:02.297Z,234.76
2023-05-11T00:55:02.280Z,236.35
2023-05-11T00:56:02.284Z,235.77
2023-05-11T00:57:02.313Z,233.45
2023-05-11T00:58:02.326Z,233.11
2023-05-11T00:59:02.336Z,236.22
2023-05-11T01:00:02.388Z,239.12
2023-05-11T01:01:02.482Z,239.63
2023-05-11T01:02:02.415Z,235.55
2023-05-11T01:03:02.536Z,234.33
2023-05-11T01:04:02.480Z,234.66
2023-05-11T01:05:02.430Z,234.25
2023-05-11T01:06:02.449Z,234.17
2023-05-11T01:07:02.501Z,233.86
2023-05-11T01:08:02.505Z,233.00
2023-05-11T01:09:02.516Z,233.51
2023-05-11T01:10:02.547Z,232.98
2023-05-11T01:11:02.593Z,234.29
2023-05-11T01:12:02.548Z,236.95
2023-05-11T01:13:02.551Z,233.40
2023-05-11T01:14:02.637Z,232.36
2023-05-11T01:15:02.649Z,234.14
2023-05-11T01:16:02.682Z,232.71
2023-05-11T01:17:02.704Z,231.25
2023-05-11T01:18:02.720Z,231.32
2023-05-11T01:19:02.796Z,232.41
2023-05-11T01:20:02.841Z,235.32
2023-05-11T01:21:02.684Z,231.67
2023-05-11T01:22:02.756Z,232.87
2023-05-11T01:23:02.744Z,234.19
2023-05-11T01:24:02.779Z,233.04
2023-05-11T01:25:02.797Z,234.33
2023-05-11T01:26:02.778Z,227.73
2023-05-11T01:27:02.833Z,227.64
2023-05-11T01:28:02.846Z,235.47
2023-05-11T01:29:02.886Z,229.37
2023-05-11T01:30:02.888Z,234.23
2023-05-11T01:31:02.902Z,231.41
2023-05-11T01:32:02.932Z,234.52
2023-05-11T01:33:02.952Z,229.76
2023-05-11T01:34:02.984Z,229.86
2023-05-11T01:35:03.008Z,230.02
2023-05-11T01:36:02.991Z,230.13
2023-05-11T01:37:02.951Z,228.58
2023-05-11T01:38:03.010Z,229.61
2023-05-11T01:39:03.043Z,230.85
2023-05-11T01:40:03.067Z,229.74
2023-05-11T01:41:03.066Z,228.55
2023-05-11T01:42:03.094Z,227.79
2023-05-11T01:43:03.124Z,228.32
2023-05-11T01:44:03.115Z,228.42
2023-05-11T01:45:03.173Z,229.19
2023-05-11T01:46:03.206Z,229.93
2023-05-11T01:47:03.175Z,229.54
2023-05-11T01:48:03.268Z,227.42
2023-05-11T01:49:03.258Z,226.05
2023-05-11T01:50:03.514Z,225.46
2023-05-11T01:51:03.308Z,227.12
2023-05-11T01:52:03.288Z,226.35
2023-05-11T01:53:03.320Z,230.22
2023-05-11T01:54:03.319Z,228.91
2023-05-11T01:55:03.313Z,230.25
2023-05-11T01:56:03.336Z,227.75
2023-05-11T01:57:03.381Z,230.15
2023-05-11T01:58:03.461Z,225.08
2023-05-11T01:59:03.403Z,230.98
2023-05-11T02:00:03.408Z,226.80
2023-05-11T02:01:03.540Z,229.29
2023-05-11T02:02:03.462Z,228.97
2023-05-11T02:03:03.490Z,228.49
2023-05-11T02:04:03.491Z,228.24
2023-05-11T02:05:03.528Z,229.72
2023-05-11T02:06:03.542Z,226.66
2023-05-11T02:07:03.547Z,226.36
2023-05-11T02:08:03.620Z,224.92
2023-05-11T02:09:03.635Z,227.24
2023-05-11T02:10:03.643Z,229.16
2023-05-11T02:11:03.722Z,231.51
2023-05-11T02:12:03.723Z,224.54
2023-05-11T02:13:03.781Z,222.87
2023-05-11T02:14:03.732Z,225.93
2023-05-11T02:15:03.747Z,225.97
2023-05-11T02:16:03.804Z,224.19
2023-05-11T02:17:03.858Z,225.47
2023-05-11T02:18:03.866Z,227.63
2023-05-11T02:19:03.940Z,223.22
2023-05-11T02:20:03.921Z,228.35
2023-05-11T02:21:03.921Z,229.45
2023-05-11T02:22:03.919Z,224.23
2023-05-11T02:23:03.966Z,229.13
2023-05-11T02:24:04.004Z,223.86
2023-05-11T02:25:03.980Z,225.82
2023-05-11T02:26:04.025Z,226.80
2023-05-11T02:27:04.065Z,225.18
2023-05-11T02:28:04.108Z,226.54
2023-05-11T02:29:04.119Z,228.37
2023-05-11T02:30:04.129Z,227.91
2023-05-11T02:31:04.212Z,222.42
2023-05-11T02:32:04.185Z,225.74
2023-05-11T02:33:04.217Z,224.09
2023-05-11T02:34:04.234Z,229.11
2023-05-11T02:35:04.208Z,226.14
2023-05-11T02:36:04.234Z,228.69
2023-05-11T02:37:04.281Z,225.27
2023-05-11T02:38:04.280Z,226.94
2023-05-11T02:39:04.356Z,224.55
2023-05-11T02:40:04.379Z,221.41
2023-05-11T02:41:04.299Z,219.90
2023-05-11T02:42:04.324Z,220.97
2023-05-11T02:43:04.384Z,221.21
2023-05-11T02:44:04.371Z,222.25
2023-05-11T02:45:04.406Z,224.20
2023-05-11T02:46:04.407Z,224.78
2023-05-11T02:47:04.409Z,226.84
2023-05-11T02:48:04.461Z,221.96
2023-05-11T02:49:04.429Z,221.90
2023-05-11T02:50:04.415Z,223.56
2023-05-11T02:51:04.445Z,225.56
2023-05-11T02:52:04.493Z,223.04
2023-05-11T02:53:04.497Z,220.15
2023-05-11T02:54:04.482Z,224.16
2023-05-11T02:55:04.499Z,219.20
2023-05-11T02:56:04.580Z,221.79
2023-05-11T02:57:04.570Z,222.22
2023-05-11T02:58:04.562Z,222.76
2023-05-11T02:59:04.599Z,223.34
2023-05-11T03:00:04.596Z,219.63
2023-05-11T03:01:04.716Z,224.81
2023-05-11T03:02:04.787Z,220.52
2023-05-11T03:03:04.693Z,221.10
2023-05-11T03:04:04.669Z,220.42
2023-05-11T03:05:04.675Z,218.78
2023-05-11T03:06:04.697Z,219.88
2023-05-11T03:07:04.673Z,219.48
2023-05-11T03:08:04.736Z,219.57
2023-05-11T03:09:04.752Z,218.89
2023-05-11T03:10:04.767Z,222.23
2023-05-11T03:11:04.757Z,219.33
2023-05-11T03:12:04.777Z,223.24
2023-05-11T03:13:04.814Z,220.90
2023-05-11T03:14:04.824Z,219.10
2023-05-11T03:15:04.916Z,220.94
2023-05-11T03:16:04.842Z,220.98
2023-05-11T03:17:04.876Z,220.26
2023-05-11T03:18:04.978Z,218.82
2023-05-11T03:19:04.900Z,218.05
2023-05-11T03:20:04.926Z,222.38
2023-05-11T03:21:04.946Z,221.52
2023-05-11T03:22:05.012Z,218.39
2023-05-11T03:23:04.984Z,220.51
2023-05-11T03:24:05.019Z,218.35
2023-05-11T03:25:05.017Z,220.58
2023-05-11T03:26:05.097Z,218.81
2023-05-11T03:27:05.024Z,219.48
2023-05-11T03:28:05.061Z,219.79
2023-05-11T03:29:05.102Z,218.03
2023-05-11T03:30:05.165Z,216.43
2023-05-11T03:31:05.125Z,218.52
2023-05-11T03:32:05.151Z,221.83
2023-05-11T03:33:05.208Z,219.17
2023-05-11T03:34:05.171Z,220.70
2023-05-11T03:35:05.187Z,217.22
2023-05-11T03:36:05.216Z,218.62
2023-05-11T03:37:05.195Z,219.48
2023-05-11T03:38:05.262Z,216.80
2023-05-11T03:39:05.274Z,220.85
2023-05-11T03:40:05.276Z,217.03
2023-05-11T03:41:05.288Z,215.95
2023-05-11T03:42:05.296Z,217.42
2023-05-11T03:43:05.311Z,215.90
2023-05-11T03:44:05.341Z,216.26
2023-05-11T03:45:05.327Z,218.51
2023-05-11T03:46:05.464Z,218.85
2023-05-11T03:47:05.446Z,216.50
2023-05-11T03:48:05.431Z,216.97
2023-05-11T03:49:05.438Z,217.39
2023-05-11T03:50:05.473Z,216.96
2023-05-11T03:51:05.472Z,215.04
2023-05-11T03:52:05.467Z,217.39
2023-05-11T03:53:05.533Z,214.96
2023-05-11T03:54:05.505Z,215.95
2023-05-11T03:55:05.532Z,214.12
2023-05-11T03:56:05.618Z,213.78
2023-05-11T03:57:05.536Z,218.26
2023-05-11T03:58:05.594Z,214.68
2023-05-11T03:59:05.617Z,218.58
2023-05-11T04:00:05.606Z,217.16
2023-05-11T04:01:05.625Z,219.20
2023-05-11T04:02:05.671Z,217.03
2023-05-11T04:03:05.837Z,215.91
2023-05-11T04:04:05.844Z,182.81
2023-05-11T04:05:05.713Z,155.95
2023-05-11T04:06:05.744Z,127.84
2023-05-11T04:07:05.770Z,100.84
2023-05-11T04:08:05.768Z,77.21
2023-05-11T04:09:05.782Z,65.22
2023-05-11T04:10:05.770Z,53.00
2023-05-11T04:11:05.826Z,51.00
2023-05-11T04:12:05.797Z,56.12
2023-05-11T04:13:05.824Z,67.31
2023-05-11T04:14:05.829Z,82.21
2023-05-11T04:15:05.873Z,72.23
2023-05-11T04:16:05.928Z,102.01
2023-05-11T04:17:05.981Z,116.29
2023-05-11T04:18:05.970Z,122.18
2023-05-11T04:19:06.184Z,127.92
2023-05-11T04:20:05.983Z,128.58
2023-05-11T04:21:06.075Z,133.41
2023-05-11T04:22:06.086Z,118.73
2023-05-11T04:23:07.707Z,98.74
2023-05-11T04:24:06.024Z,102.86
2023-05-11T04:25:06.076Z,75.29
2023-05-11T04:26:06.029Z,76.73
2023-05-11T04:27:06.040Z,97.35
2023-05-11T04:28:06.012Z,83.33
2023-05-11T04:29:06.035Z,88.90
2023-05-11T04:30:06.026Z,94.24
2023-05-11T04:31:06.008Z,94.12
2023-05-11T04:32:05.960Z,76.83
2023-05-11T04:33:06.014Z,82.70
2023-05-11T04:34:05.977Z,81.85
2023-05-11T04:35:05.950Z,84.53
2023-05-11T04:36:05.944Z,81.94
2023-05-11T04:37:05.957Z,82.92
2023-05-11T04:38:05.922Z,76.89
2023-05-11T04:39:07.815Z,77.88
2023-05-11T04:40:05.950Z,83.58
2023-05-11T04:41:05.917Z,80.53
2023-05-11T04:42:05.918Z,76.62
2023-05-11T04:43:05.897Z,77.72
2023-05-11T04:44:05.901Z,78.94
2023-05-11T04:45:05.848Z,80.30
2023-05-11T04:46:06.629Z,82.84
2023-05-11T04:47:05.999Z,83.23
2023-05-11T04:48:05.993Z,90.13
2023-05-11T04:49:05.850Z,84.30
2023-05-11T04:50:05.841Z,95.11
2023-05-11T04:51:05.802Z,98.05
2023-05-11T04:52:05.917Z,99.14
2023-05-11T04:53:05.908Z,104.94
2023-05-11T04:54:05.950Z,105.49
2023-05-11T04:55:05.956Z,109.66
2023-05-11T04:56:06.004Z,109.63
2023-05-11T04:57:05.997Z,110.43
2023-05-11T04:58:06.015Z,112.97
2023-05-11T04:59:06.032Z,114.69
2023-05-11T05:00:06.076Z,116.99
2023-05-11T05:01:06.168Z,111.52
2023-05-11T05:02:06.079Z,114.30
2023-05-11T05:03:06.176Z,117.35
2023-05-11T05:04:06.236Z,122.82
2023-05-11T05:05:06.182Z,121.86
2023-05-11T05:06:06.220Z,126.85
2023-05-11T05:07:06.199Z,128.45
2023-05-11T05:08:06.296Z,124.72
2023-05-11T05:09:06.238Z,126.51
2023-05-11T05:10:06.310Z,136.84
2023-05-11T05:11:06.299Z,133.61
2023-05-11T05:12:06.330Z,135.73
2023-05-11T05:13:06.414Z,136.12
2023-05-11T05:14:06.350Z,138.12
2023-05-11T05:15:06.347Z,133.47
2023-05-11T05:16:06.466Z,137.99
2023-05-11T05:17:06.568Z,138.53
2023-05-11T05:18:06.530Z,137.38
2023-05-11T05:19:06.513Z,134.83
2023-05-11T05:20:06.506Z,138.81
2023-05-11T05:21:06.503Z,134.06
2023-05-11T05:22:06.493Z,133.95
2023-05-11T05:23:06.590Z,133.85
2023-05-11T05:24:06.594Z,133.24
2023-05-11T05:25:06.620Z,133.99
2023-05-11T05:26:06.624Z,135.47
2023-05-11T05:27:06.653Z,132.27
2023-05-11T05:28:06.740Z,130.03
2023-05-11T05:29:06.674Z,133.16
2023-05-11T05:30:06.738Z,132.78
2023-05-11T05:31:06.792Z,131.26
2023-05-11T05:32:06.958Z,130.29
2023-05-11T05:33:06.813Z,135.49
2023-05-11T05:34:06.886Z,134.05
2023-05-11T05:35:06.920Z,133.77
2023-05-11T05:36:07.143Z,128.67
2023-05-11T05:37:07.027Z,122.49
2023-05-11T05:38:07.039Z,119.22
2023-05-11T05:39:07.103Z,96.07
2023-05-11T05:40:07.213Z,77.43
2023-05-11T05:41:07.154Z,60.04
2023-05-11T05:42:07.247Z,26.21
2023-05-11T05:43:07.269Z,24.48
2023-05-11T05:44:07.296Z,24.85
2023-05-11T05:45:07.380Z,25.68
2023-05-11T05:46:07.361Z,26.50
2023-05-11T05:47:07.474Z,31.34
2023-05-11T05:48:07.504Z,32.94
2023-05-11T05:49:07.468Z,29.81
2023-05-11T05:50:07.636Z,32.13
2023-05-11T05:51:07.530Z,33.51
2023-05-11T05:52:07.630Z,45.04
2023-05-11T05:53:07.574Z,38.57
2023-05-11T05:54:07.753Z,38.93
2023-05-11T05:55:07.656Z,28.57
2023-05-11T05:56:07.689Z,33.05
2023-05-11T05:57:07.748Z,28.56
2023-05-11T05:58:07.735Z,25.00
2023-05-11T05:59:07.787Z,36.08
2023-05-11T06:00:07.841Z,30.96
2023-05-11T06:01:08.170Z,35.99
2023-05-11T06:02:07.898Z,21.43
2023-05-11T06:03:08.117Z,28.60
2023-05-11T06:04:08.169Z,32.79
2023-05-11T06:05:08.059Z,24.62
2023-05-11T06:06:07.965Z,35.81
2023-05-11T06:07:07.974Z,43.80
2023-05-11T06:08:11.132Z,25.00
2023-05-11T06:09:07.963Z,30.04
2023-05-11T06:10:07.989Z,28.95
2023-05-11T06:11:07.974Z,25.00
2023-05-11T06:12:07.948Z,25.62
2023-05-11T06:13:07.991Z,29.32
2023-05-11T06:14:08.002Z,43.30
2023-05-11T06:15:07.987Z,41.94
2023-05-11T06:16:08.049Z,49.71
2023-05-11T06:17:07.930Z,52.58
2023-05-11T06:18:08.025Z,57.04
2023-05-11T06:19:07.936Z,63.35
2023-05-11T06:20:08.022Z,67.18
2023-05-11T06:21:07.916Z,70.68
2023-05-11T06:22:07.938Z,67.98
2023-05-11T06:23:07.884Z,72.65
2023-05-11T06:24:07.851Z,68.33
2023-05-11T06:25:07.853Z,63.15
2023-05-11T06:26:07.822Z,69.02
2023-05-11T06:27:07.836Z,74.65
2023-05-11T06:28:07.923Z,77.66
2023-05-11T06:29:07.886Z,77.91
2023-05-11T06:30:07.850Z,79.83
2023-05-11T06:31:07.929Z,81.25
2023-05-11T06:32:08.174Z,79.39
2023-05-11T06:33:08.002Z,79.28
2023-05-11T06:34:07.815Z,81.85
2023-05-11T06:35:08.244Z,81.23
2023-05-11T06:36:07.775Z,76.22
2023-05-11T06:37:08.144Z,63.72
2023-05-11T06:38:07.815Z,53.84
2023-05-11T06:39:07.769Z,52.45
2023-05-11T06:40:07.755Z,54.73
2023-05-11T06:41:07.801Z,50.72
2023-05-11T06:42:08.784Z,48.30
2023-05-11T06:43:07.872Z,51.69
2023-05-11T06:44:07.746Z,52.39
2023-05-11T06:45:07.776Z,59.18
2023-05-11T06:46:07.803Z,69.39
2023-05-11T06:47:07.710Z,67.98
2023-05-11T06:48:07.944Z,60.09
2023-05-11T06:49:07.726Z,48.24
2023-05-11T06:50:07.679Z,47.57
2023-05-11T06:51:07.698Z,45.11
2023-05-11T06:52:07.644Z,50.69
2023-05-11T06:53:07.717Z,56.20
2023-05-11T06:54:07.662Z,61.89
2023-05-11T06:55:07.665Z,67.18
2023-05-11T06:56:07.678Z,64.88
2023-05-11T06:57:07.669Z,56.07
2023-05-11T06:58:07.685Z,49.27
2023-05-11T06:59:07.770Z,50.90
2023-05-11T07:00:07.906Z,58.80
2023-05-11T07:01:07.800Z,60.47
2023-05-11T07:02:07.690Z,60.64
2023-05-11T07:03:07.928Z,60.18
2023-05-11T07:04:07.843Z,42.60
2023-05-11T07:05:08.017Z,48.15
2023-05-11T07:06:07.855Z,47.02
2023-05-11T07:07:08.075Z,51.10
2023-05-11T07:08:07.819Z,46.24
2023-05-11T07:09:07.815Z,45.35
2023-05-11T07:10:07.825Z,54.01
2023-05-11T07:11:07.900Z,38.93
2023-05-11T07:12:07.887Z,45.15
2023-05-11T07:13:07.887Z,48.76
2023-05-11T07:14:07.881Z,49.30
2023-05-11T07:15:07.903Z,51.68
2023-05-11T07:16:07.928Z,53.34
2023-05-11T07:17:08.965Z,55.81
2023-05-11T07:18:08.008Z,57.55
2023-05-11T07:19:08.845Z,61.77
2023-05-11T07:20:08.058Z,56.50
2023-05-11T07:21:08.054Z,48.26
2023-05-11T07:22:08.044Z,35.74
2023-05-11T07:23:08.079Z,42.28
2023-05-11T07:24:08.121Z,41.41
2023-05-11T07:25:08.640Z,44.68
2023-05-11T07:26:08.149Z,35.76
2023-05-11T07:27:08.144Z,27.39
2023-05-11T07:28:08.181Z,29.75
2023-05-11T07:29:08.211Z,31.55
2023-05-11T07:30:08.169Z,32.99
2023-05-11T07:31:08.211Z,33.13
2023-05-11T07:32:08.312Z,43.41
2023-05-11T07:33:08.627Z,50.56
2023-05-11T07:34:08.442Z,51.52
2023-05-11T07:35:08.576Z,42.46
2023-05-11T07:36:08.361Z,37.33
2023-05-11T07:37:08.364Z,32.60
2023-05-11T07:38:08.650Z,25.00
2023-05-11T07:39:08.428Z,25.00
2023-05-11T07:40:08.434Z,25.88
2023-05-11T07:41:10.824Z,26.03
2023-05-11T07:42:08.489Z,30.12
2023-05-11T07:43:08.504Z,29.41
2023-05-11T07:44:08.572Z,28.28
2023-05-11T07:45:08.440Z,33.41
2023-05-11T07:46:08.747Z,40.46
2023-05-11T07:47:08.431Z,41.85
2023-05-11T07:48:08.484Z,44.85
2023-05-11T07:49:17.006Z,42.96
2023-05-11T07:50:09.567Z,43.22
2023-05-11T07:51:08.606Z,43.54
2023-05-11T07:52:08.421Z,43.76
2023-05-11T07:53:08.486Z,38.19
2023-05-11T07:54:08.361Z,38.76
2023-05-11T07:55:08.386Z,25.78
2023-05-11T07:56:08.450Z,33.42
2023-05-11T07:57:08.352Z,29.89
2023-05-11T07:58:08.400Z,26.57
2023-05-11T07:59:08.367Z,25.00
2023-05-11T08:00:08.394Z,33.25
2023-05-11T08:01:08.431Z,37.93
2023-05-11T08:02:09.021Z,33.82
2023-05-11T08:03:08.387Z,32.55
2023-05-11T08:04:08.446Z,32.79
2023-05-11T08:05:08.317Z,34.01
2023-05-11T08:06:08.342Z,32.73
2023-05-11T08:07:08.260Z,32.97
2023-05-11T08:08:08.273Z,35.11
2023-05-11T08:09:08.263Z,31.15
2023-05-11T08:10:08.681Z,25.11
2023-05-11T08:11:08.284Z,28.31
2023-05-11T08:12:08.274Z,25.08
2023-05-11T08:13:08.289Z,25.10
2023-05-11T08:14:08.301Z,24.85
2023-05-11T08:15:08.405Z,25.60
2023-05-11T08:16:08.458Z,35.29
2023-05-11T08:17:08.384Z,38.45
2023-05-11T08:18:08.369Z,36.24
2023-05-11T08:19:08.380Z,41.68
2023-05-11T08:20:08.313Z,43.02
2023-05-11T08:21:08.269Z,28.44
2023-05-11T08:22:08.321Z,37.89
2023-05-11T08:23:08.327Z,24.33
2023-05-11T08:24:08.328Z,25.30
2023-05-11T08:25:08.338Z,27.83
2023-05-11T08:26:08.275Z,36.42
2023-05-11T08:27:08.294Z,53.30
2023-05-11T08:28:08.244Z,64.52
2023-05-11T08:29:08.267Z,78.02
2023-05-11T08:30:10.023Z,87.90
2023-05-11T08:31:08.278Z,85.23
2023-05-11T08:32:08.540Z,48.72
2023-05-11T08:33:20.116Z,20.80
2023-05-11T08:34:18.478Z,20.84
2023-05-11T08:35:09.404Z,11.39
2023-05-11T08:36:08.246Z,0.00
2023-05-11T08:37:08.462Z,0.00
2023-05-11T08:38:08.189Z,0.00
2023-05-11T08:39:08.226Z,0.00
2023-05-11T08:40:08.180Z,2.18
2023-05-11T08:41:08.199Z,19.97
2023-05-11T08:42:08.192Z,25.42
2023-05-11T08:43:08.200Z,25.45
2023-05-11T08:44:08.178Z,31.52
2023-05-11T08:45:08.162Z,34.99
2023-05-11T08:46:08.227Z,38.17
2023-05-11T08:47:21.763Z,40.58
2023-05-11T08:48:09.169Z,40.81
2023-05-11T08:49:08.135Z,41.25
2023-05-11T08:50:08.132Z,41.62
2023-05-11T08:51:08.111Z,47.31
2023-05-11T08:52:08.333Z,55.71
2023-05-11T08:53:08.078Z,55.75
2023-05-11T08:54:08.119Z,56.70
2023-05-11T08:55:08.140Z,60.18
2023-05-11T08:56:08.054Z,64.89
2023-05-11T08:57:08.065Z,66.91
2023-05-11T08:58:08.042Z,65.14
2023-05-11T08:59:08.105Z,65.01
2023-05-11T09:00:08.095Z,63.17
2023-05-11T09:01:08.169Z,68.80
2023-05-11T09:02:08.119Z,69.54
2023-05-11T09:03:08.188Z,69.31
2023-05-11T09:04:08.191Z,70.94
2023-05-11T09:05:08.246Z,72.07
2023-05-11T09:06:08.286Z,78.93
2023-05-11T09:07:08.257Z,82.76
2023-05-11T09:08:08.271Z,91.23
2023-05-11T09:09:08.300Z,89.67
2023-05-11T09:10:08.688Z,87.20
2023-05-11T09:11:08.342Z,82.38
2023-05-11T09:12:08.345Z,81.75
2023-05-11T09:13:08.396Z,81.67
2023-05-11T09:14:08.388Z,84.67
2023-05-11T09:15:08.472Z,79.47
2023-05-11T09:17:08.486Z,90.67
2023-05-11T09:18:08.445Z,87.43
2023-05-11T09:19:08.534Z,93.09
2023-05-11T09:20:08.506Z,89.85
2023-05-11T09:21:08.517Z,86.96
2023-05-11T09:22:08.623Z,84.98
2023-05-11T09:23:08.516Z,91.23
2023-05-11T09:24:08.580Z,94.02
2023-05-11T09:25:08.572Z,88.73
2023-05-11T09:26:08.601Z,83.75
2023-05-11T09:27:08.681Z,90.92
2023-05-11T09:28:08.683Z,86.00
2023-05-11T09:29:08.651Z,84.27
2023-05-11T09:30:08.626Z,87.62
2023-05-11T09:31:08.615Z,87.70
2023-05-11T09:32:08.688Z,90.40
2023-05-11T09:33:08.673Z,94.49
2023-05-11T09:34:08.658Z,99.14
2023-05-11T09:35:08.720Z,101.41
2023-05-11T09:36:08.656Z,108.07
2023-05-11T09:37:08.730Z,118.69
2023-05-11T09:38:08.675Z,125.33
2023-05-11T09:40:26.240Z,130.91
2023-05-11T09:41:09.675Z,130.77
2023-05-11T09:42:08.670Z,131.85
2023-05-11T09:43:08.671Z,131.70
2023-05-11T09:44:08.680Z,133.27
2023-05-11T09:45:08.602Z,132.36
2023-05-11T09:46:08.681Z,131.29
2023-05-11T09:47:08.642Z,135.10
2023-05-11T09:48:08.617Z,138.06
2023-05-11T09:49:08.599Z,133.63
2023-05-11T09:50:08.606Z,127.10
2023-05-11T09:51:08.562Z,115.63
2023-05-11T09:52:08.567Z,112.42
2023-05-11T09:53:08.567Z,111.58
2023-05-11T09:54:08.611Z,118.15
2023-05-11T09:55:08.501Z,115.04
2023-05-11T09:56:08.535Z,112.43
2023-05-11T09:57:08.577Z,110.05
2023-05-11T09:58:08.579Z,108.64
2023-05-11T09:59:08.586Z,101.63
2023-05-11T10:00:08.559Z,102.91
2023-05-11T10:01:08.578Z,112.11
2023-05-11T10:02:08.489Z,113.50
2023-05-11T10:03:08.596Z,115.24
2023-05-11T10:04:22.399Z,118.09
2023-05-11T10:05:09.491Z,118.28
2023-05-11T10:06:08.462Z,119.67
2023-05-11T10:07:08.449Z,119.93
2023-05-11T10:08:08.437Z,118.77
2023-05-11T10:09:08.460Z,114.50
2023-05-11T10:10:08.430Z,113.91
2023-05-11T10:11:08.447Z,107.29
2023-05-11T10:12:08.413Z,100.73
2023-05-11T10:13:08.458Z,94.85
2023-05-11T10:14:08.387Z,102.47
2023-05-11T10:15:08.414Z,100.39
2023-05-11T10:16:08.475Z,105.59
2023-05-11T10:17:08.383Z,94.82
2023-05-11T10:18:08.422Z,89.66
2023-05-11T10:19:08.515Z,97.32
2023-05-11T10:20:08.341Z,102.16
2023-05-11T10:21:08.369Z,106.86
2023-05-11T10:22:08.428Z,108.97
2023-05-11T10:23:08.372Z,109.42
2023-05-11T10:24:08.370Z,111.35
2023-05-11T10:25:08.454Z,112.07
2023-05-11T10:26:08.345Z,112.07
2023-05-11T10:27:08.312Z,120.60
2023-05-11T10:28:08.364Z,132.85
2023-05-11T10:29:08.310Z,136.90
2023-05-11T10:30:08.315Z,143.03
2023-05-11T10:31:08.327Z,147.47
2023-05-11T10:32:08.504Z,150.77
2023-05-11T10:33:08.323Z,153.81
2023-05-11T10:34:08.304Z,153.78
2023-05-11T10:35:08.281Z,157.91
2023-05-11T10:36:08.718Z,159.36
2023-05-11T10:37:08.240Z,154.21
2023-05-11T10:38:08.250Z,145.91
2023-05-11T10:39:08.228Z,139.88
2023-05-11T10:40:08.213Z,142.39
2023-05-11T10:41:08.246Z,134.43
2023-05-11T10:42:08.257Z,131.15
2023-05-11T10:43:08.201Z,133.49
2023-05-11T10:44:08.207Z,138.46
2023-05-11T10:45:08.206Z,137.97
2023-05-11T10:46:08.269Z,128.70
2023-05-11T10:47:08.183Z,132.32
2023-05-11T10:48:08.225Z,134.72
2023-05-11T10:49:08.209Z,133.98
2023-05-11T10:50:08.206Z,125.75
2023-05-11T10:51:08.181Z,131.38
2023-05-11T10:52:08.152Z,124.49
2023-05-11T10:53:08.121Z,115.85
2023-05-11T10:54:08.175Z,121.02
2023-05-11T10:55:08.183Z,119.59
2023-05-11T10:56:08.146Z,114.93
2023-05-11T10:57:08.146Z,115.73
2023-05-11T10:58:08.094Z,116.64
2023-05-11T10:59:08.100Z,110.25
2023-05-11T11:00:08.129Z,109.23
2023-05-11T11:01:08.133Z,108.59
2023-05-11T11:02:08.196Z,109.37
2023-05-11T11:03:08.168Z,109.09
2023-05-11T11:04:08.056Z,107.38
2023-05-11T11:05:08.146Z,113.57
2023-05-11T11:06:08.172Z,113.90
2023-05-11T11:07:08.286Z,117.66
2023-05-11T11:08:08.123Z,115.58
2023-05-11T11:09:08.078Z,111.58
2023-05-11T11:10:08.133Z,111.31
2023-05-11T11:11:08.244Z,106.45
2023-05-11T11:12:08.079Z,112.71
2023-05-11T11:13:08.119Z,120.62
2023-05-11T11:14:08.159Z,126.55
2023-05-11T11:15:08.219Z,129.54
2023-05-11T11:16:08.304Z,130.87
2023-05-11T11:17:08.224Z,127.07
2023-05-11T11:18:08.246Z,124.23
2023-05-11T11:19:08.222Z,122.50
2023-05-11T11:20:08.161Z,121.16
2023-05-11T11:21:08.190Z,124.80
2023-05-11T11:22:08.141Z,129.06
2023-05-11T11:23:08.150Z,135.14
2023-05-11T11:24:08.242Z,139.19
2023-05-11T11:25:08.189Z,145.89
2023-05-11T11:26:08.242Z,156.67
2023-05-11T11:27:08.364Z,153.68
2023-05-11T11:28:08.256Z,153.17
2023-05-11T11:29:08.283Z,152.41
2023-05-11T11:30:08.268Z,146.64
2023-05-11T11:31:08.414Z,138.60
2023-05-11T11:32:08.253Z,141.26
2023-05-11T11:33:08.369Z,136.95
2023-05-11T11:34:08.288Z,132.44
2023-05-11T11:35:08.233Z,130.16
2023-05-11T11:36:08.315Z,120.17
2023-05-11T11:37:08.328Z,120.13
2023-05-11T11:38:08.317Z,129.13
2023-05-11T11:39:08.334Z,120.68
2023-05-11T11:40:14.599Z,110.96
2023-05-11T11:41:09.319Z,102.60
2023-05-11T11:42:08.340Z,97.44
2023-05-11T11:43:08.270Z,95.79
2023-05-11T11:44:08.276Z,96.24
2023-05-11T11:45:08.273Z,102.53
2023-05-11T11:46:08.295Z,94.15
2023-05-11T11:47:08.294Z,87.38
2023-05-11T11:48:08.276Z,91.51
2023-05-11T11:49:08.252Z,96.17
2023-05-11T11:50:08.259Z,98.07
2023-05-11T11:51:08.222Z,97.25
2023-05-11T11:52:08.230Z,88.89
2023-05-11T11:53:08.226Z,94.87
2023-05-11T11:54:08.216Z,95.39
2023-05-11T11:55:08.247Z,87.72
2023-05-11T11:56:08.186Z,84.30
2023-05-11T11:57:08.183Z,83.42
2023-05-11T11:58:08.157Z,81.08
2023-05-11T11:59:08.164Z,85.03
2023-05-11T12:00:08.172Z,90.13
2023-05-11T12:01:08.232Z,91.51
2023-05-11T12:02:08.104Z,88.00
2023-05-11T12:03:08.251Z,89.79
2023-05-11T12:04:08.234Z,81.00
2023-05-11T12:05:08.245Z,74.42
2023-05-11T12:06:08.110Z,67.68
2023-05-11T12:07:08.117Z,73.68
2023-05-11T12:08:08.130Z,84.78
2023-05-11T12:09:08.063Z,90.30
2023-05-11T12:10:08.106Z,92.52
2023-05-11T12:11:08.100Z,97.79
2023-05-11T12:12:08.090Z,98.92
2023-05-11T12:13:08.081Z,96.34
2023-05-11T12:14:08.066Z,97.80
2023-05-11T12:15:08.047Z,97.52
2023-05-11T12:16:08.040Z,98.90
2023-05-11T12:17:08.068Z,99.13
2023-05-11T12:18:08.058Z,99.69
2023-05-11T12:19:08.195Z,99.12
2023-05-11T12:20:07.995Z,105.71
2023-05-11T12:21:08.008Z,111.53
2023-05-11T12:22:08.010Z,116.26
2023-05-11T12:23:07.985Z,118.67
2023-05-11T12:24:07.955Z,120.86
2023-05-11T12:25:07.968Z,121.75
2023-05-11T12:26:07.993Z,121.95
2023-05-11T12:27:07.947Z,123.15
2023-05-11T12:28:07.909Z,126.25
2023-05-11T12:29:07.974Z,125.80
2023-05-11T12:30:07.988Z,127.84
2023-05-11T12:31:07.905Z,129.60
2023-05-11T12:32:08.195Z,130.19
2023-05-11T12:33:08.076Z,131.80
2023-05-11T12:34:07.886Z,131.96
2023-05-11T12:35:07.947Z,132.74
2023-05-11T12:36:07.910Z,132.92
2023-05-11T12:37:07.886Z,133.04
2023-05-11T12:38:08.024Z,130.64
2023-05-11T12:39:07.867Z,131.83
2023-05-11T12:40:07.965Z,133.95